createdAt,value
2018-08-24T00:00:33.519Z,94686.09
2018-08-24T00:03:38.021Z,94686.11
2018-08-24T00:06:42.639Z,94683.56
2018-08-24T00:09:47.480Z,94674.55
2018-08-24T00:12:51.929Z,94669.77
2018-08-24T00:15:56.344Z,94674.48
2018-08-24T00:19:00.771Z,94679.82
2018-08-24T00:22:05.226Z,94672.10
2018-08-24T00:25:09.726Z,94673.72
2018-08-24T00:28:14.483Z,94671.20
2018-08-24T00:31:19.083Z,94671.02
2018-08-24T00:34:23.568Z,94677.87
2018-08-24T00:37:27.953Z,94669.86
2018-08-24T00:40:32.329Z,94670.02
2018-08-24T00:43:36.765Z,94665.33
2018-08-24T00:46:41.392Z,94667.00
2018-08-24T00:49:45.983Z,94673.28
2018-08-24T00:52:50.432Z,94669.42
2018-08-24T00:55:55.255Z,94670.74
2018-08-24T00:58:59.672Z,94671.83
2018-08-24T01:02:04.155Z,94669.77
2018-08-24T01:05:09.258Z,94679.13
2018-08-24T01:08:13.774Z,94680.55
2018-08-24T01:11:18.147Z,94682.60
2018-08-24T01:14:22.638Z,94690.42
2018-08-24T01:17:32.303Z,94682.02
2018-08-24T01:20:36.755Z,94686.75
2018-08-24T01:23:41.227Z,94682.50
2018-08-24T01:26:49.669Z,94684.35
2018-08-24T01:29:54.800Z,94679.00
2018-08-24T01:32:59.232Z,94682.09
2018-08-24T01:36:04.200Z,94678.41
2018-08-24T01:39:09.086Z,94682.22
2018-08-24T01:42:13.440Z,94678.98
2018-08-24T01:45:17.838Z,94686.16
2018-08-24T01:48:22.491Z,94688.44
2018-08-24T01:51:27.120Z,94689.58
2018-08-24T01:54:31.550Z,94693.53
2018-08-24T01:57:35.903Z,94690.92
2018-08-24T02:00:52.247Z,94687.86
2018-08-24T02:03:57.262Z,94685.70
2018-08-24T02:07:01.611Z,94679.42
2018-08-24T02:10:10.093Z,94692.44
2018-08-24T02:13:19.804Z,94682.52
2018-08-24T02:16:24.206Z,94678.53
2018-08-24T02:19:33.469Z,94687.50
2018-08-24T02:22:37.826Z,94681.20
2018-08-24T02:25:42.762Z,94683.72
2018-08-24T02:28:47.185Z,94685.39
2018-08-24T02:31:51.897Z,94686.11
2018-08-24T02:34:59.003Z,94688.55
2018-08-24T02:38:03.418Z,94689.68
2018-08-24T02:41:07.816Z,94686.35
2018-08-24T02:44:12.485Z,94694.11
2018-08-24T02:47:16.895Z,94697.91
2018-08-24T02:50:21.534Z,94694.44
2018-08-24T02:53:25.973Z,94697.76
2018-08-24T02:56:30.361Z,94700.91
2018-08-24T02:59:34.785Z,94699.00
2018-08-24T03:02:39.315Z,94703.58
2018-08-24T03:05:43.901Z,94705.24
2018-08-24T03:08:48.415Z,94701.63
2018-08-24T03:11:52.837Z,94699.72
2018-08-24T03:14:57.224Z,94691.91
2018-08-24T03:18:01.590Z,94690.65
2018-08-24T03:21:06.202Z,94689.11
2018-08-24T03:24:10.773Z,94686.13
2018-08-24T03:27:15.295Z,94694.61
2018-08-24T03:30:19.846Z,94689.97
2018-08-24T03:33:24.207Z,94686.95
2018-08-24T03:36:28.645Z,94682.73
2018-08-24T03:39:33.090Z,94688.64
2018-08-24T03:42:43.985Z,94688.78
2018-08-24T03:45:48.495Z,94687.80
2018-08-24T03:48:52.900Z,94684.18
2018-08-24T03:51:57.359Z,94685.09
2018-08-24T03:55:02.844Z,94683.97
2018-08-24T03:58:08.293Z,94690.08
2018-08-24T04:01:12.913Z,94690.04
2018-08-24T04:04:17.473Z,94677.58
2018-08-24T04:07:21.833Z,94675.08
2018-08-24T04:10:27.243Z,94685.91
2018-08-24T04:13:31.885Z,94683.55
2018-08-24T04:16:41.677Z,94685.80
2018-08-24T04:19:46.133Z,94694.45
2018-08-24T04:22:50.502Z,94698.34
2018-08-24T04:25:55.074Z,94704.60
2018-08-24T04:29:00.232Z,94706.50
2018-08-24T04:32:04.694Z,94713.92
2018-08-24T04:35:09.076Z,94710.02
2018-08-24T04:38:13.569Z,94713.15
2018-08-24T04:41:17.948Z,94710.55
2018-08-24T04:44:22.547Z,94713.66
2018-08-24T04:47:27.017Z,94709.80
2018-08-24T04:50:32.105Z,94713.86
2018-08-24T04:53:36.536Z,94718.84
2018-08-24T04:56:41.037Z,94716.89
2018-08-24T04:59:45.851Z,94719.75
2018-08-24T05:02:50.234Z,94716.48
2018-08-24T05:05:54.684Z,94716.73
2018-08-24T05:08:59.215Z,94722.95
2018-08-24T05:12:03.840Z,94723.41
2018-08-24T05:15:08.311Z,94720.16
2018-08-24T05:18:12.718Z,94722.59
2018-08-24T05:21:17.143Z,94721.09
2018-08-24T05:24:21.668Z,94719.11
2018-08-24T05:27:26.097Z,94720.46
2018-08-24T05:30:30.520Z,94717.62
2018-08-24T05:33:35.014Z,94720.83
2018-08-24T05:36:39.652Z,94729.07
2018-08-24T05:39:49.385Z,94732.36
2018-08-24T05:42:53.863Z,94737.58
2018-08-24T05:45:58.446Z,94740.95
2018-08-24T05:49:03.090Z,94738.90
2018-08-24T05:52:07.714Z,94741.86
2018-08-24T05:55:12.085Z,94746.36
2018-08-24T05:58:16.477Z,94752.38
2018-08-24T06:01:21.069Z,94747.29
2018-08-24T06:04:25.513Z,94746.38
2018-08-24T06:07:29.937Z,94745.03
2018-08-24T06:10:34.336Z,94746.95
2018-08-24T06:13:39.104Z,94747.19
2018-08-24T06:16:49.018Z,94752.62
2018-08-24T06:19:53.753Z,94754.41
2018-08-24T06:22:58.570Z,94759.06
2018-08-24T06:26:03.461Z,94747.55
2018-08-24T06:29:09.023Z,94759.08
2018-08-24T06:32:13.782Z,94762.52
2018-08-24T06:35:18.794Z,94763.31
2018-08-24T06:38:23.575Z,94767.13
2018-08-24T06:41:28.116Z,94767.52
2018-08-24T06:44:32.609Z,94779.98
2018-08-24T06:47:37.325Z,94772.65
2018-08-24T06:50:41.796Z,94777.38
2018-08-24T06:53:47.510Z,94773.90
2018-08-24T06:56:52.446Z,94781.54
2018-08-24T06:59:57.559Z,94789.88
2018-08-24T07:03:03.865Z,94789.57
2018-08-24T07:06:08.341Z,94801.48
2018-08-24T07:09:12.881Z,94803.30
2018-08-24T07:12:17.301Z,94809.14
2018-08-24T07:15:21.715Z,94808.23
2018-08-24T07:18:26.349Z,94805.31
2018-08-24T07:21:30.819Z,94807.33
2018-08-24T07:24:35.437Z,94813.42
2018-08-24T07:27:40.070Z,94814.37
2018-08-24T07:30:44.448Z,94817.37
2018-08-24T07:33:48.875Z,94813.48
2018-08-24T07:36:53.393Z,94811.98
2018-08-24T07:39:57.923Z,94819.30
2018-08-24T07:43:02.627Z,94814.55
2018-08-24T07:46:08.277Z,94814.34
2018-08-24T07:49:29.311Z,94813.85
2018-08-24T07:52:33.819Z,94814.77
2018-08-24T07:55:38.406Z,94810.01
2018-08-24T07:58:42.922Z,94808.69
2018-08-24T08:01:47.362Z,94809.16
2018-08-24T08:04:51.905Z,94822.55
2018-08-24T08:07:56.341Z,94822.84
2018-08-24T08:11:01.077Z,94816.52
2018-08-24T08:14:05.520Z,94821.80
2018-08-24T08:17:10.088Z,94814.53
2018-08-24T08:20:14.556Z,94824.92
2018-08-24T08:23:19.559Z,94812.37
2018-08-24T08:26:24.107Z,94813.55
2018-08-24T08:29:33.870Z,94818.95
2018-08-24T08:32:38.299Z,94815.65
2018-08-24T08:35:43.337Z,94812.22
2018-08-24T08:38:47.981Z,94813.72
2018-08-24T08:41:52.418Z,94810.34
2018-08-24T08:44:57.073Z,94809.69
2018-08-24T08:48:01.516Z,94810.19
2018-08-24T08:51:06.065Z,94811.79
2018-08-24T08:54:10.793Z,94813.22
2018-08-24T08:57:15.372Z,94814.19
2018-08-24T09:00:19.984Z,94816.89
2018-08-24T09:03:24.527Z,94816.48
2018-08-24T09:06:29.753Z,94814.44
2018-08-24T09:09:34.196Z,94820.30
2018-08-24T09:12:38.679Z,94823.44
2018-08-24T09:15:43.121Z,94823.06
2018-08-24T09:18:52.920Z,94832.11
2018-08-24T09:22:02.809Z,94823.36
2018-08-24T09:25:12.628Z,94829.42
2018-08-24T09:28:22.986Z,94833.89
2018-08-24T09:31:31.426Z,94830.33
2018-08-24T09:34:36.066Z,94830.30
2018-08-24T09:37:40.740Z,94830.70
2018-08-24T09:40:50.453Z,94822.24
2018-08-24T09:44:00.125Z,94824.77
2018-08-24T09:47:10.017Z,94827.81
2018-08-24T09:50:19.798Z,94823.88
2018-08-24T09:53:29.533Z,94820.76
2018-08-24T09:56:34.772Z,94826.13
2018-08-24T09:59:39.302Z,94837.36
2018-08-24T10:02:44.494Z,94832.56
2018-08-24T10:05:54.054Z,94839.53
2018-08-24T10:08:58.880Z,94853.49
2018-08-24T10:12:03.670Z,94854.19
2018-08-24T10:15:09.895Z,94852.94
2018-08-24T10:18:14.437Z,94849.66
2018-08-24T10:21:18.906Z,94864.36
2018-08-24T10:24:23.309Z,94856.16
2018-08-24T10:27:27.663Z,94851.45
2018-08-24T10:30:32.315Z,94844.65
2018-08-24T10:33:36.772Z,94842.68
2018-08-24T10:36:41.128Z,94836.70
2018-08-24T10:39:45.503Z,94836.42
2018-08-24T10:42:50.099Z,94824.70
2018-08-24T10:45:54.550Z,94817.32
2018-08-24T10:48:59.148Z,94805.90
2018-08-24T10:52:03.555Z,94809.20
2018-08-24T10:55:08.033Z,94810.55
2018-08-24T10:58:13.782Z,94810.36
2018-08-24T11:01:18.269Z,94817.37
2018-08-24T11:04:22.670Z,94809.51
2018-08-24T11:07:27.553Z,94825.88
2018-08-24T11:10:31.997Z,94825.24
2018-08-24T11:13:36.629Z,94824.17
2018-08-24T11:16:41.104Z,94824.40
2018-08-24T11:19:45.518Z,94821.11
2018-08-24T11:22:50.021Z,94822.65
2018-08-24T11:25:54.474Z,94818.98
2018-08-24T11:28:59.033Z,94816.33
2018-08-24T11:32:03.733Z,94814.00
2018-08-24T11:35:08.238Z,94815.27
2018-08-24T11:38:12.721Z,94817.22
2018-08-24T11:41:17.281Z,94808.05
2018-08-24T11:44:21.793Z,94815.36
2018-08-24T11:47:26.557Z,94809.98
2018-08-24T11:50:31.023Z,94804.59
2018-08-24T11:53:35.493Z,94799.21
2018-08-24T11:56:39.947Z,94795.19
2018-08-24T11:59:44.441Z,94779.44
2018-08-24T12:02:48.992Z,94777.70
2018-08-24T12:05:53.562Z,94763.30
2018-08-24T12:08:58.756Z,94760.50
2018-08-24T12:12:03.371Z,94755.02
2018-08-24T12:15:07.758Z,94750.85
2018-08-24T12:18:12.731Z,94745.05
2018-08-24T12:21:17.419Z,94742.43
2018-08-24T12:24:21.931Z,94728.23
2018-08-24T12:27:26.433Z,94723.92
2018-08-24T12:30:30.935Z,94723.23
2018-08-24T12:33:35.524Z,94723.08
2018-08-24T12:36:40.225Z,94722.00
2018-08-24T12:39:44.678Z,94718.20
2018-08-24T12:42:49.211Z,94712.02
2018-08-24T12:45:53.783Z,94713.39
2018-08-24T12:48:58.380Z,94709.13
2018-08-24T12:52:03.427Z,94707.53
2018-08-24T12:55:09.361Z,94703.87
2018-08-24T12:58:14.221Z,94694.73
2018-08-24T13:01:19.382Z,94690.84
2018-08-24T13:04:24.279Z,94695.08
2018-08-24T13:07:29.355Z,94685.68
2018-08-24T13:10:33.886Z,94683.45
2018-08-24T13:13:38.727Z,94683.97
2018-08-24T13:16:43.537Z,94675.50
2018-08-24T13:19:48.150Z,94681.00
2018-08-24T13:22:53.083Z,94681.94
2018-08-24T13:25:57.775Z,94680.58
2018-08-24T13:29:02.472Z,94669.89
2018-08-24T13:32:07.270Z,94665.22
2018-08-24T13:35:11.747Z,94668.63
2018-08-24T13:38:16.342Z,94657.53
2018-08-24T13:41:20.895Z,94663.20
2018-08-24T13:44:27.148Z,94651.33
2018-08-24T13:47:31.681Z,94647.69
2018-08-24T13:50:36.225Z,94642.73
2018-08-24T13:53:41.162Z,94644.16
2018-08-24T13:56:45.883Z,94637.47
2018-08-24T13:59:50.706Z,94632.75
2018-08-24T14:02:55.482Z,94637.06
2018-08-24T14:06:00.121Z,94636.78
2018-08-24T14:09:06.970Z,94634.42
2018-08-24T14:12:11.607Z,94640.55
2018-08-24T14:15:16.607Z,94633.34
2018-08-24T14:18:21.356Z,94626.11
2018-08-24T14:21:25.951Z,94626.25
2018-08-24T14:25:33.846Z,94623.91
2018-08-24T14:28:38.415Z,94619.31
2018-08-24T14:31:43.014Z,94616.20
2018-08-24T14:34:47.553Z,94619.55
2018-08-24T14:37:52.120Z,94619.63
2018-08-24T14:40:56.747Z,94620.00
2018-08-24T14:44:01.511Z,94609.66
2018-08-24T14:47:06.249Z,94597.36
2018-08-24T14:50:11.371Z,94595.59
2018-08-24T14:53:16.064Z,94587.56
2018-08-24T14:56:20.812Z,94590.90
2018-08-24T14:59:25.392Z,94588.72
2018-08-24T15:02:30.191Z,94593.39
2018-08-24T15:05:35.038Z,94587.59
2018-08-24T15:08:39.487Z,94590.53
2018-08-24T15:11:43.983Z,94580.64
2018-08-24T15:14:48.513Z,94581.47
2018-08-24T15:17:53.099Z,94581.51
2018-08-24T15:20:57.665Z,94597.98
2018-08-24T15:24:02.115Z,94600.13
2018-08-24T15:27:06.490Z,94611.52
2018-08-24T15:30:11.099Z,94617.52
2018-08-24T15:33:15.658Z,94605.52
2018-08-24T15:36:21.719Z,94611.91
2018-08-24T15:39:28.763Z,94610.56
2018-08-24T15:42:34.278Z,94614.50
2018-08-24T15:45:43.076Z,94620.95
2018-08-24T15:48:47.694Z,94627.70
2018-08-24T15:51:52.520Z,94632.30
2018-08-24T15:54:56.987Z,94624.59
2018-08-24T15:58:01.500Z,94630.38
2018-08-24T16:01:05.991Z,94633.45
2018-08-24T16:04:10.624Z,94641.91
2018-08-24T16:07:17.925Z,94646.91
2018-08-24T16:10:23.826Z,94645.37
2018-08-24T16:13:28.914Z,94647.66
2018-08-24T16:16:34.940Z,94643.27
2018-08-24T16:19:39.587Z,94655.36
2018-08-24T16:22:44.742Z,94657.66
2018-08-24T16:25:49.685Z,94663.61
2018-08-24T16:28:54.944Z,94670.30
2018-08-24T16:31:59.495Z,94671.45
2018-08-24T16:35:04.528Z,94685.85
2018-08-24T16:38:09.568Z,94690.06
2018-08-24T16:41:14.167Z,94681.78
2018-08-24T16:44:18.637Z,94680.45
2018-08-24T16:47:23.707Z,94681.78
2018-08-24T16:50:28.293Z,94685.64
2018-08-24T16:53:33.205Z,94691.02
2018-08-24T16:56:39.374Z,94692.55
2018-08-24T16:59:43.823Z,94691.77
2018-08-24T17:02:48.360Z,94702.89
2018-08-24T17:05:52.940Z,94710.18
2018-08-24T17:08:57.600Z,94709.77
2018-08-24T17:12:02.009Z,94716.66
2018-08-24T17:15:07.137Z,94716.06
2018-08-24T17:18:12.004Z,94726.43
2018-08-24T17:21:21.260Z,94724.89
2018-08-24T17:24:25.814Z,94729.64
2018-08-24T17:27:30.310Z,94724.67
2018-08-24T17:30:35.005Z,94730.44
2018-08-24T17:33:39.648Z,94733.69
2018-08-24T17:36:44.069Z,94730.92
2018-08-24T17:39:48.585Z,94734.13
2018-08-24T17:42:53.045Z,94744.45
2018-08-24T17:45:58.070Z,94762.22
2018-08-24T17:49:02.593Z,94757.14
2018-08-24T17:52:06.993Z,94754.01
2018-08-24T17:55:11.566Z,94758.23
2018-08-24T17:58:15.937Z,94760.71
2018-08-24T18:01:20.313Z,94766.23
2018-08-24T18:04:24.681Z,94779.80
2018-08-24T18:07:29.180Z,94784.45
2018-08-24T18:10:33.686Z,94775.77
2018-08-24T18:13:38.292Z,94781.27
2018-08-24T18:16:42.736Z,94781.56
2018-08-24T18:19:47.308Z,94783.81
2018-08-24T18:22:52.113Z,94785.88
2018-08-24T18:25:59.150Z,94794.67
2018-08-24T18:29:03.918Z,94801.89
2018-08-24T18:32:08.647Z,94804.30
2018-08-24T18:35:13.183Z,94809.77
2018-08-24T18:38:18.068Z,94815.07
2018-08-24T18:41:22.581Z,94816.75
2018-08-24T18:44:27.103Z,94830.29
2018-08-24T18:47:32.873Z,94844.45
2018-08-24T18:50:37.688Z,94849.04
2018-08-24T18:53:42.452Z,94846.80
2018-08-24T18:56:46.885Z,94856.56
2018-08-24T18:59:51.616Z,94868.72
2018-08-24T19:02:56.020Z,94869.29
2018-08-24T19:06:00.533Z,94864.06
2018-08-24T19:09:07.925Z,94861.53
2018-08-24T19:12:17.674Z,94862.44
2018-08-24T19:15:22.376Z,94863.23
2018-08-24T19:18:32.174Z,94872.82
2018-08-24T19:21:43.671Z,94864.14
2018-08-24T19:24:48.598Z,94840.49
2018-08-24T19:27:58.455Z,94837.34
2018-08-24T19:31:03.109Z,94839.27
2018-08-24T19:34:07.857Z,94835.78
2018-08-24T19:37:12.490Z,94847.20
2018-08-24T19:40:22.360Z,94842.06
2018-08-24T19:43:28.530Z,94828.23
2018-08-24T19:46:34.938Z,94831.15
2018-08-24T19:49:39.734Z,94832.19
2018-08-24T19:52:44.253Z,94826.27
2018-08-24T19:55:49.035Z,94823.20
2018-08-24T19:58:58.950Z,94821.81
2018-08-24T20:02:03.603Z,94831.28
2018-08-24T20:05:08.271Z,94829.61
2018-08-24T20:08:18.143Z,94834.16
2018-08-24T20:11:23.149Z,94838.67
2018-08-24T20:14:34.689Z,94850.92
2018-08-24T20:17:39.032Z,94852.19
2018-08-24T20:20:43.535Z,94852.47
2018-08-24T20:23:47.944Z,94846.23
2018-08-24T20:26:52.634Z,94848.17
2018-08-24T20:29:57.091Z,94850.95
2018-08-24T20:33:01.702Z,94860.66
2018-08-24T20:36:07.118Z,94865.45
2018-08-24T20:39:12.366Z,94861.80
2018-08-24T20:42:16.902Z,94868.45
2018-08-24T20:45:22.238Z,94860.56
2018-08-24T20:48:28.160Z,94865.03
2018-08-24T20:51:32.896Z,94869.81
2018-08-24T20:54:37.818Z,94877.23
2018-08-24T20:57:42.255Z,94869.56
2018-08-24T21:00:48.802Z,94872.80
2018-08-24T21:03:53.290Z,94877.47
2018-08-24T21:06:57.849Z,94877.89
2018-08-24T21:10:02.468Z,94869.59
2018-08-24T21:13:07.276Z,94867.08
2018-08-24T21:16:13.688Z,94868.98
2018-08-24T21:19:18.213Z,94877.78
2018-08-24T21:22:22.978Z,94876.30
2018-08-24T21:25:27.669Z,94873.23
2018-08-24T21:28:32.051Z,94863.00
2018-08-24T21:31:36.497Z,94865.42
2018-08-24T21:34:40.910Z,94865.91
2018-08-24T21:37:45.346Z,94867.91
2018-08-24T21:40:49.745Z,94871.56
2018-08-24T21:43:54.308Z,94870.78
2018-08-24T21:46:58.729Z,94873.76
2018-08-24T21:50:03.173Z,94876.17
2018-08-24T21:53:07.712Z,94875.61
2018-08-24T21:56:12.111Z,94878.59
2018-08-24T21:59:16.497Z,94877.77
2018-08-24T22:02:21.031Z,94879.50
2018-08-24T22:05:25.406Z,94876.27
2018-08-24T22:08:29.845Z,94881.70
2018-08-24T22:11:34.496Z,94879.03
2018-08-24T22:14:38.913Z,94874.50
2018-08-24T22:17:43.389Z,94876.02
2018-08-24T22:20:47.800Z,94877.78
2018-08-24T22:23:52.387Z,94882.48
2018-08-24T22:26:56.856Z,94877.91
2018-08-24T22:30:01.378Z,94875.11
2018-08-24T22:33:05.752Z,94876.80
2018-08-24T22:36:10.406Z,94870.55
2018-08-24T22:39:17.346Z,94866.33
2018-08-24T22:42:22.549Z,94869.30
2018-08-24T22:45:27.391Z,94863.09
2018-08-24T22:48:32.662Z,94865.47
2018-08-24T22:51:37.157Z,94862.19
2018-08-24T22:54:41.689Z,94867.19
2018-08-24T22:57:46.058Z,94866.63
2018-08-24T23:00:50.545Z,94868.18
2018-08-24T23:03:55.146Z,94862.55
2018-08-24T23:06:59.549Z,94854.91
2018-08-24T23:10:04.073Z,94856.42
2018-08-24T23:13:08.547Z,94854.32
2018-08-24T23:16:13.303Z,94868.40
2018-08-24T23:19:17.677Z,94863.48
2018-08-24T23:22:22.100Z,94868.19
2018-08-24T23:25:26.579Z,94861.20
2018-08-24T23:28:31.053Z,94860.77
2018-08-24T23:31:35.440Z,94862.76
2018-08-24T23:34:39.820Z,94865.08
2018-08-24T23:37:44.277Z,94860.64
2018-08-24T23:40:48.681Z,94859.73
2018-08-24T23:43:53.116Z,94852.98
2018-08-24T23:46:57.502Z,94855.50
2018-08-24T23:50:01.937Z,94858.27
2018-08-24T23:53:06.370Z,94853.38
2018-08-24T23:56:10.777Z,94852.98
2018-08-24T23:59:15.363Z,94853.77
